KMKC/MKC METAR and TAF weather

Enter ICAO airport designator
Station Type Date Time Source
KMKC METAR 2022/10/01 07:54 UTC NOAA

KMKC 010754Z 11004KT 10SM CLR 15/06 A3010 RMK AO2 SLP188 T01500061


Station Type Date Time Source
KMKC Decoded METAR 2022/10/01 07:54 UTC NOAA

KANSAS CITY DOWNTOWN AIRPORT , MO, United States (KMKC) 39-07N 094-36W 227M
Oct 01, 2022 - 03:54 AM EDT / 2022.10.01 0754 UTC
Wind: from the ESE (110 degrees) at 5 MPH (4 KT):0
Visibility: 10 mile(s):0
Sky conditions: clear
Temperature: 59.0 F (15.0 C)
Dew Point: 43.0 F (6.1 C)
Relative Humidity: 55%
Pressure (altimeter): 30.1 in. Hg (1019 hPa)
ob: KMKC 010754Z 11004KT 10SM CLR 15/06 A3010 RMK AO2 SLP188 T01500061
cycle: 8

Station Type Date Time Source
KMKC TAF 2022/10/01 06:22 UTC NOAA

TAF KMKC 010520Z 0106/0206 09006KT P6SM FEW250

Example: see airport list